createdAt,value
2018-11-12T00:00:28.466Z,0.00
2018-11-12T00:01:28.489Z,0.00
2018-11-12T00:02:28.514Z,0.00
2018-11-12T00:03:28.540Z,0.00
2018-11-12T00:04:28.572Z,0.00
2018-11-12T00:05:28.595Z,0.00
2018-11-12T00:06:28.620Z,0.00
2018-11-12T00:07:28.649Z,0.00
2018-11-12T00:08:28.678Z,0.00
2018-11-12T00:09:28.703Z,0.00
2018-11-12T00:10:28.727Z,0.00
2018-11-12T00:11:28.756Z,0.00
2018-11-12T00:12:28.781Z,0.00
2018-11-12T00:13:28.806Z,0.00
2018-11-12T00:14:28.834Z,0.00
2018-11-12T00:15:28.861Z,0.00
2018-11-12T00:16:28.886Z,0.00
2018-11-12T00:17:28.915Z,0.00
2018-11-12T00:18:28.945Z,0.00
2018-11-12T00:19:28.969Z,0.00
2018-11-12T00:20:28.995Z,0.00
2018-11-12T00:21:29.021Z,0.00
2018-11-12T00:22:29.048Z,0.00
2018-11-12T00:23:29.077Z,0.00
2018-11-12T00:24:29.100Z,0.00
2018-11-12T00:25:29.128Z,0.00
2018-11-12T00:26:29.158Z,0.00
2018-11-12T00:27:29.182Z,0.00
2018-11-12T00:28:29.207Z,0.00
2018-11-12T00:29:29.236Z,0.00
2018-11-12T00:30:29.262Z,0.00
2018-11-12T00:31:29.289Z,0.00
2018-11-12T00:32:29.317Z,0.00
2018-11-12T00:33:29.341Z,0.00
2018-11-12T00:34:29.374Z,0.00
2018-11-12T00:35:29.395Z,0.00
2018-11-12T00:36:29.421Z,0.00
2018-11-12T00:37:29.448Z,0.00
2018-11-12T00:38:29.478Z,0.00
2018-11-12T00:39:29.505Z,0.00
2018-11-12T00:40:29.530Z,0.00
2018-11-12T00:41:29.558Z,0.00
2018-11-12T00:42:29.583Z,0.00
2018-11-12T00:43:29.610Z,0.00
2018-11-12T00:44:29.637Z,0.00
2018-11-12T00:45:29.661Z,0.00
2018-11-12T00:46:29.690Z,0.00
2018-11-12T00:47:29.715Z,0.00
2018-11-12T00:48:29.741Z,0.00
2018-11-12T00:49:29.768Z,0.00
2018-11-12T00:50:29.798Z,0.00
2018-11-12T00:51:29.824Z,0.00
2018-11-12T00:52:29.849Z,0.00
2018-11-12T00:53:29.877Z,0.00
2018-11-12T00:54:29.945Z,0.00
2018-11-12T00:55:29.929Z,0.00
2018-11-12T00:56:29.956Z,0.00
2018-11-12T00:57:29.981Z,0.00
2018-11-12T00:58:30.010Z,0.00
2018-11-12T00:59:30.039Z,0.00
2018-11-12T01:00:30.839Z,0.00
2018-11-12T01:01:30.091Z,0.00
2018-11-12T01:02:30.120Z,0.00
2018-11-12T01:03:30.142Z,0.00
2018-11-12T01:04:30.168Z,0.00
2018-11-12T01:05:30.198Z,0.00
2018-11-12T01:06:30.222Z,0.00
2018-11-12T01:07:30.252Z,0.00
2018-11-12T01:08:30.274Z,0.00
2018-11-12T01:09:30.302Z,0.00
2018-11-12T01:10:30.332Z,0.00
2018-11-12T01:11:30.360Z,0.00
2018-11-12T01:12:30.382Z,0.00
2018-11-12T01:13:30.412Z,0.00
2018-11-12T01:14:30.438Z,0.00
2018-11-12T01:15:30.464Z,0.00
2018-11-12T01:16:30.492Z,0.00
2018-11-12T01:17:30.519Z,0.00
2018-11-12T01:18:30.545Z,0.00
2018-11-12T01:19:30.571Z,0.00
2018-11-12T01:20:30.599Z,0.00
2018-11-12T01:21:30.624Z,0.00
2018-11-12T01:22:30.654Z,0.00
2018-11-12T01:23:30.678Z,0.00
2018-11-12T01:24:30.708Z,0.00
2018-11-12T01:25:30.733Z,0.00
2018-11-12T01:26:30.761Z,0.00
2018-11-12T01:27:30.791Z,0.00
2018-11-12T01:28:30.814Z,0.00
2018-11-12T01:29:30.840Z,0.00
2018-11-12T01:30:30.865Z,0.00
2018-11-12T01:31:30.899Z,0.00
2018-11-12T01:32:30.919Z,0.00
2018-11-12T01:33:30.945Z,0.00
2018-11-12T01:34:30.972Z,0.00
2018-11-12T01:35:30.998Z,0.00
2018-11-12T01:36:31.025Z,0.00
2018-11-12T01:37:31.051Z,0.00
2018-11-12T01:38:31.079Z,0.00
2018-11-12T01:39:31.106Z,0.00
2018-11-12T01:40:31.135Z,0.00
2018-11-12T01:41:31.162Z,0.00
2018-11-12T01:42:31.188Z,0.00
2018-11-12T01:43:31.214Z,0.00
2018-11-12T01:44:31.240Z,0.00
2018-11-12T01:45:31.269Z,0.00
2018-11-12T01:46:31.296Z,0.00
2018-11-12T01:47:31.323Z,0.00
2018-11-12T01:48:31.346Z,0.00
2018-11-12T01:49:31.371Z,0.00
2018-11-12T01:50:31.400Z,0.00
2018-11-12T01:51:31.428Z,0.00
2018-11-12T01:52:31.453Z,0.00
2018-11-12T01:53:31.479Z,0.00
2018-11-12T01:54:31.507Z,0.00
2018-11-12T01:55:31.537Z,0.00
2018-11-12T01:56:31.562Z,0.00
2018-11-12T01:57:31.586Z,0.00
2018-11-12T01:58:31.613Z,0.00
2018-11-12T01:59:31.643Z,0.00
2018-11-12T02:00:31.669Z,0.00
2018-11-12T02:01:31.720Z,0.00
2018-11-12T02:02:31.723Z,0.00
2018-11-12T02:03:31.751Z,0.00
2018-11-12T02:04:31.772Z,0.00
2018-11-12T02:05:31.800Z,0.00
2018-11-12T02:06:31.826Z,0.00
2018-11-12T02:07:31.854Z,0.00
2018-11-12T02:08:31.887Z,0.00
2018-11-12T02:09:31.907Z,0.00
2018-11-12T02:10:31.934Z,0.00
2018-11-12T02:11:31.963Z,0.00
2018-11-12T02:12:31.989Z,0.00
2018-11-12T02:13:32.013Z,0.00
2018-11-12T02:14:32.053Z,0.00
2018-11-12T02:15:32.071Z,0.00
2018-11-12T02:16:32.096Z,0.00
2018-11-12T02:17:32.124Z,0.00
2018-11-12T02:18:32.148Z,0.00
2018-11-12T02:19:32.177Z,0.00
2018-11-12T02:20:32.201Z,0.00
2018-11-12T02:21:32.272Z,0.00
2018-11-12T02:22:32.333Z,0.00
2018-11-12T02:23:32.282Z,0.00
2018-11-12T02:24:32.309Z,0.00
2018-11-12T02:25:32.339Z,0.00
2018-11-12T02:26:32.364Z,0.00
2018-11-12T02:27:32.388Z,0.00
2018-11-12T02:28:32.416Z,0.00
2018-11-12T02:29:32.486Z,0.00
2018-11-12T02:30:32.490Z,0.00
2018-11-12T02:31:32.498Z,0.00
2018-11-12T02:32:32.519Z,0.00
2018-11-12T02:33:32.551Z,0.00
2018-11-12T02:34:32.577Z,0.00
2018-11-12T02:35:32.604Z,0.00
2018-11-12T02:36:32.632Z,0.00
2018-11-12T02:37:32.653Z,0.00
2018-11-12T02:38:32.686Z,0.00
2018-11-12T02:39:32.708Z,0.00
2018-11-12T02:40:32.731Z,0.00
2018-11-12T02:41:32.765Z,0.00
2018-11-12T02:42:32.786Z,0.00
2018-11-12T02:43:32.816Z,0.00
2018-11-12T02:44:32.847Z,0.00
2018-11-12T02:45:32.864Z,0.00
2018-11-12T02:46:32.892Z,0.00
2018-11-12T02:47:32.921Z,0.00
2018-11-12T02:48:32.945Z,0.00
2018-11-12T02:49:32.977Z,0.00
2018-11-12T02:50:32.995Z,0.00
2018-11-12T02:51:33.021Z,0.00
2018-11-12T02:52:33.047Z,0.00
2018-11-12T02:53:33.075Z,0.00
2018-11-12T02:54:33.103Z,0.00
2018-11-12T02:55:33.128Z,0.00
2018-11-12T02:56:33.158Z,0.00
2018-11-12T02:57:33.269Z,0.00
2018-11-12T02:58:33.206Z,0.00
2018-11-12T02:59:33.239Z,0.00
2018-11-12T03:00:33.261Z,0.00
2018-11-12T03:01:33.285Z,0.00
2018-11-12T03:02:33.318Z,0.00
2018-11-12T03:03:33.342Z,0.00
2018-11-12T03:04:33.362Z,0.00
2018-11-12T03:05:33.389Z,0.00
2018-11-12T03:06:33.419Z,0.00
2018-11-12T03:07:33.465Z,0.00
2018-11-12T03:08:33.472Z,0.00
2018-11-12T03:09:33.499Z,0.00
2018-11-12T03:10:33.524Z,0.00
2018-11-12T03:11:33.552Z,0.00
2018-11-12T03:12:33.574Z,0.00
2018-11-12T03:13:33.603Z,0.00
2018-11-12T03:14:33.627Z,0.00
2018-11-12T03:15:33.654Z,0.00
2018-11-12T03:16:33.680Z,0.00
2018-11-12T03:17:33.706Z,0.00
2018-11-12T03:18:33.736Z,0.00
2018-11-12T03:19:33.764Z,0.00
2018-11-12T03:20:33.787Z,0.00
2018-11-12T03:21:33.811Z,0.00
2018-11-12T03:22:33.838Z,0.00
2018-11-12T03:23:33.865Z,0.00
2018-11-12T03:24:33.891Z,0.00
2018-11-12T03:25:33.918Z,0.00
2018-11-12T03:26:33.948Z,0.00
2018-11-12T03:27:34.013Z,0.00
2018-11-12T03:28:34.007Z,0.00
2018-11-12T03:29:34.023Z,0.00
2018-11-12T03:30:34.052Z,0.00
2018-11-12T03:31:34.078Z,0.00
2018-11-12T03:32:34.102Z,0.00
2018-11-12T03:33:34.129Z,0.00
2018-11-12T03:34:34.154Z,0.00
2018-11-12T03:35:34.183Z,0.00
2018-11-12T03:36:34.209Z,0.00
2018-11-12T03:37:34.233Z,0.00
2018-11-12T03:38:34.263Z,0.00
2018-11-12T03:39:34.335Z,0.00
2018-11-12T03:40:34.314Z,0.00
2018-11-12T03:41:34.340Z,0.00
2018-11-12T03:42:34.365Z,0.00
2018-11-12T03:43:34.393Z,0.00
2018-11-12T03:44:34.418Z,0.00
2018-11-12T03:45:34.445Z,0.00
2018-11-12T03:46:34.471Z,0.00
2018-11-12T03:47:34.500Z,0.00
2018-11-12T03:48:34.522Z,0.00
2018-11-12T03:49:34.554Z,0.00
2018-11-12T03:50:34.583Z,0.00
2018-11-12T03:51:34.603Z,0.00
2018-11-12T03:52:34.634Z,0.00
2018-11-12T03:53:34.668Z,0.00
2018-11-12T03:54:34.683Z,0.00
2018-11-12T03:55:34.711Z,0.00
2018-11-12T03:56:34.737Z,0.00
2018-11-12T03:57:34.765Z,0.00
2018-11-12T03:58:34.788Z,0.00
2018-11-12T03:59:34.815Z,0.00
2018-11-12T04:00:34.843Z,0.00
2018-11-12T04:01:34.871Z,0.00
2018-11-12T04:02:34.895Z,0.00
2018-11-12T04:03:34.921Z,0.00
2018-11-12T04:04:34.947Z,0.00
2018-11-12T04:05:34.976Z,0.00
2018-11-12T04:06:35.007Z,0.00
2018-11-12T04:07:35.029Z,0.00
2018-11-12T04:08:35.056Z,0.00
2018-11-12T04:09:35.086Z,0.00
2018-11-12T04:10:35.111Z,0.00
2018-11-12T04:11:35.133Z,0.00
2018-11-12T04:12:35.159Z,0.00
2018-11-12T04:13:35.184Z,0.00
2018-11-12T04:14:35.214Z,0.00
2018-11-12T04:15:35.241Z,0.00
2018-11-12T04:16:35.263Z,0.00
2018-11-12T04:17:35.293Z,0.00
2018-11-12T04:18:35.318Z,0.00
2018-11-12T04:19:35.345Z,0.00
2018-11-12T04:20:35.372Z,0.00
2018-11-12T04:21:35.402Z,0.00
2018-11-12T04:22:35.423Z,0.00
2018-11-12T04:23:35.449Z,0.00
2018-11-12T04:24:35.479Z,0.00
2018-11-12T04:25:35.504Z,0.00
2018-11-12T04:26:35.534Z,0.00
2018-11-12T04:27:35.556Z,0.00
2018-11-12T04:28:35.589Z,0.00
2018-11-12T04:29:35.611Z,0.00
2018-11-12T04:30:35.638Z,0.00
2018-11-12T04:31:35.666Z,0.00
2018-11-12T04:32:35.688Z,0.00
2018-11-12T04:33:35.720Z,0.00
2018-11-12T04:34:35.741Z,0.00
2018-11-12T04:35:35.771Z,0.00
2018-11-12T04:36:35.793Z,0.00
2018-11-12T04:37:35.822Z,0.00
2018-11-12T04:38:35.847Z,0.00
2018-11-12T04:39:35.878Z,0.00
2018-11-12T04:40:35.900Z,0.00
2018-11-12T04:41:35.925Z,0.00
2018-11-12T04:42:35.951Z,0.00
2018-11-12T04:43:35.978Z,0.00
2018-11-12T04:44:36.006Z,0.00
2018-11-12T04:45:36.118Z,0.00
2018-11-12T04:46:36.063Z,0.00
2018-11-12T04:47:36.084Z,0.00
2018-11-12T04:48:36.111Z,0.00
2018-11-12T04:49:36.137Z,0.00
2018-11-12T04:50:36.170Z,0.00
2018-11-12T04:51:36.191Z,0.00
2018-11-12T04:52:36.218Z,0.00
2018-11-12T04:53:36.415Z,0.00
2018-11-12T04:54:36.269Z,0.00
2018-11-12T04:55:36.295Z,0.00
2018-11-12T04:56:36.324Z,0.00
2018-11-12T04:57:36.349Z,0.00
2018-11-12T04:58:36.374Z,0.00
2018-11-12T04:59:36.402Z,0.00
2018-11-12T05:00:36.431Z,0.00
2018-11-12T05:01:36.453Z,0.00
2018-11-12T05:02:36.480Z,0.00
2018-11-12T05:03:36.508Z,0.00
2018-11-12T05:04:36.532Z,0.00
2018-11-12T05:05:36.562Z,0.00
2018-11-12T05:06:36.585Z,0.00
2018-11-12T05:07:36.706Z,0.00
2018-11-12T05:08:36.640Z,0.00
2018-11-12T05:09:36.666Z,0.00
2018-11-12T05:10:36.691Z,0.00
2018-11-12T05:11:36.717Z,0.00
2018-11-12T05:12:36.743Z,0.00
2018-11-12T05:13:36.776Z,0.00
2018-11-12T05:14:36.798Z,0.00
2018-11-12T05:15:36.823Z,0.00
2018-11-12T05:16:36.914Z,0.00
2018-11-12T05:17:36.875Z,0.00
2018-11-12T05:18:36.903Z,0.00
2018-11-12T05:19:36.932Z,0.00
2018-11-12T05:20:36.954Z,0.00
2018-11-12T05:21:36.982Z,0.00
2018-11-12T05:22:37.007Z,0.00
2018-11-12T05:23:37.033Z,0.00
2018-11-12T05:24:37.062Z,4.00
2018-11-12T05:25:37.087Z,4.00
2018-11-12T05:26:37.114Z,4.00
2018-11-12T05:27:37.141Z,0.00
2018-11-12T05:28:37.163Z,0.00
2018-11-12T05:29:37.191Z,0.00
2018-11-12T05:30:37.221Z,0.00
2018-11-12T05:31:37.243Z,4.00
2018-11-12T05:32:37.267Z,4.00
2018-11-12T05:33:37.297Z,0.00
2018-11-12T05:34:37.322Z,4.00
2018-11-12T05:35:37.348Z,8.00
2018-11-12T05:36:37.374Z,8.00
2018-11-12T05:37:37.452Z,4.00
2018-11-12T05:38:37.427Z,8.00
2018-11-12T05:39:37.451Z,4.00
2018-11-12T05:40:37.481Z,4.00
2018-11-12T05:41:37.504Z,8.00
2018-11-12T05:42:37.532Z,8.00
2018-11-12T05:43:37.559Z,12.00
2018-11-12T05:44:37.583Z,12.00
2018-11-12T05:45:37.609Z,12.00
2018-11-12T05:46:37.634Z,12.00
2018-11-12T05:47:37.660Z,20.00
2018-11-12T05:48:37.688Z,20.00
2018-11-12T05:49:37.714Z,24.00
2018-11-12T05:50:37.739Z,24.00
2018-11-12T05:51:37.824Z,24.00
2018-11-12T05:52:37.791Z,36.00
2018-11-12T05:53:37.816Z,48.00
2018-11-12T05:54:37.842Z,44.00
2018-11-12T05:55:37.869Z,44.00
2018-11-12T05:56:37.894Z,40.00
2018-11-12T05:57:37.921Z,36.00
2018-11-12T05:58:37.948Z,28.00
2018-11-12T05:59:37.973Z,32.00
2018-11-12T06:00:37.998Z,32.00
2018-11-12T06:01:38.029Z,36.00
2018-11-12T06:02:38.051Z,36.00
2018-11-12T06:03:38.079Z,40.00
2018-11-12T06:04:38.148Z,44.00
2018-11-12T06:05:38.128Z,48.00
2018-11-12T06:06:38.158Z,60.00
2018-11-12T06:07:38.183Z,72.00
2018-11-12T06:08:38.206Z,80.00
2018-11-12T06:09:38.234Z,92.00
2018-11-12T06:10:38.259Z,100.00
2018-11-12T06:11:38.284Z,104.00
2018-11-12T06:12:38.313Z,112.00
2018-11-12T06:13:38.335Z,124.00
2018-11-12T06:14:38.365Z,120.00
2018-11-12T06:15:38.388Z,164.00
2018-11-12T06:16:38.418Z,184.00
2018-11-12T06:17:38.440Z,184.00
2018-11-12T06:18:38.466Z,180.00
2018-11-12T06:19:38.492Z,148.00
2018-11-12T06:20:38.520Z,152.00
2018-11-12T06:21:38.545Z,144.00
2018-11-12T06:22:38.620Z,160.00
2018-11-12T06:23:38.599Z,172.00
2018-11-12T06:24:38.623Z,192.00
2018-11-12T06:25:38.654Z,200.00
2018-11-12T06:26:38.676Z,180.00
2018-11-12T06:27:38.700Z,204.00
2018-11-12T06:28:38.724Z,228.00
2018-11-12T06:29:38.758Z,228.00
2018-11-12T06:30:38.777Z,224.00
2018-11-12T06:31:38.807Z,192.00
2018-11-12T06:32:38.830Z,196.00
2018-11-12T06:33:38.913Z,200.00
2018-11-12T06:34:38.886Z,200.00
2018-11-12T06:35:38.908Z,196.00
2018-11-12T06:36:38.997Z,196.00
2018-11-12T06:37:38.959Z,204.00
2018-11-12T06:38:38.985Z,224.00
2018-11-12T06:39:39.011Z,208.00
2018-11-12T06:40:39.037Z,212.00
2018-11-12T06:41:39.063Z,216.00
2018-11-12T06:42:39.266Z,236.00
2018-11-12T06:43:39.117Z,264.00
2018-11-12T06:44:39.144Z,260.00
2018-11-12T06:45:39.172Z,252.00
2018-11-12T06:46:39.193Z,232.00
2018-11-12T06:47:39.221Z,300.00
2018-11-12T06:48:39.245Z,284.00
2018-11-12T06:49:39.271Z,300.00
2018-11-12T06:50:39.298Z,280.00
2018-11-12T06:51:39.324Z,280.00
2018-11-12T06:52:39.368Z,292.00
2018-11-12T06:53:39.380Z,280.00
2018-11-12T06:54:39.402Z,256.00
2018-11-12T06:55:39.428Z,264.00
2018-11-12T06:56:39.454Z,284.00
2018-11-12T06:57:39.479Z,292.00
2018-11-12T06:58:39.506Z,320.00
2018-11-12T06:59:39.533Z,320.00
2018-11-12T07:00:39.563Z,308.00
2018-11-12T07:01:39.583Z,316.00
2018-11-12T07:02:39.611Z,332.00
2018-11-12T07:03:39.636Z,340.00
2018-11-12T07:04:39.663Z,364.00
2018-11-12T07:05:39.691Z,344.00
2018-11-12T07:06:39.749Z,316.00
2018-11-12T07:07:39.741Z,348.00
2018-11-12T07:08:39.768Z,396.00
2018-11-12T07:09:39.797Z,468.00
2018-11-12T07:10:39.818Z,440.00
2018-11-12T07:11:39.845Z,484.00
2018-11-12T07:12:39.869Z,564.00
2018-11-12T07:13:39.897Z,612.00
2018-11-12T07:14:39.922Z,600.00
2018-11-12T07:15:39.949Z,528.00
2018-11-12T07:16:39.973Z,500.00
2018-11-12T07:17:40.002Z,592.00
2018-11-12T07:18:40.059Z,612.00
2018-11-12T07:19:40.053Z,520.00
2018-11-12T07:20:40.081Z,568.00
2018-11-12T07:21:40.107Z,624.00
2018-11-12T07:22:40.132Z,648.00
2018-11-12T07:23:40.158Z,644.00
2018-11-12T07:24:40.183Z,640.00
2018-11-12T07:25:40.208Z,652.00
2018-11-12T07:26:40.235Z,692.00
2018-11-12T07:27:40.260Z,744.00
2018-11-12T07:28:40.289Z,688.00
2018-11-12T07:29:40.314Z,696.00
2018-11-12T07:30:40.350Z,720.00
2018-11-12T07:31:40.370Z,740.00
2018-11-12T07:32:40.391Z,696.00
2018-11-12T07:33:40.416Z,688.00
2018-11-12T07:34:40.443Z,656.00
2018-11-12T07:35:40.471Z,584.00
2018-11-12T07:36:40.494Z,636.00
2018-11-12T07:37:40.521Z,732.00
2018-11-12T07:38:40.548Z,668.00
2018-11-12T07:39:40.573Z,692.00
2018-11-12T07:40:40.598Z,680.00
2018-11-12T07:41:40.625Z,844.00
2018-11-12T07:42:40.651Z,828.00
2018-11-12T07:43:40.679Z,840.00
2018-11-12T07:44:40.702Z,824.00
2018-11-12T07:45:40.729Z,824.00
2018-11-12T07:46:40.754Z,828.00
2018-11-12T07:47:40.783Z,864.00
2018-11-12T07:48:40.820Z,876.00
2018-11-12T07:49:40.835Z,924.00
2018-11-12T07:50:40.858Z,916.00
2018-11-12T07:51:40.889Z,932.00
2018-11-12T07:52:40.910Z,1000.00
2018-11-12T07:53:40.938Z,1100.00
2018-11-12T07:54:40.964Z,1028.00
2018-11-12T07:55:40.991Z,1108.00
2018-11-12T07:56:41.015Z,1036.00
2018-11-12T07:57:41.040Z,920.00
2018-11-12T07:58:41.068Z,1048.00
2018-11-12T07:59:41.099Z,1096.00
2018-11-12T08:00:41.117Z,976.00
2018-11-12T08:01:41.144Z,864.00
2018-11-12T08:02:41.169Z,960.00
2018-11-12T08:03:41.340Z,860.00
2018-11-12T08:04:41.225Z,984.00
2018-11-12T08:05:41.275Z,916.00
2018-11-12T08:06:41.274Z,1008.00
2018-11-12T08:07:41.301Z,1068.00
2018-11-12T08:08:41.326Z,1056.00
2018-11-12T08:09:41.437Z,1060.00
2018-11-12T08:10:41.384Z,1028.00
2018-11-12T08:11:41.416Z,1184.00
2018-11-12T08:12:41.431Z,1268.00
2018-11-12T08:13:41.457Z,1228.00
2018-11-12T08:14:41.559Z,1072.00
2018-11-12T08:15:41.507Z,1128.00
2018-11-12T08:16:41.534Z,1132.00
2018-11-12T08:17:41.656Z,1120.00
2018-11-12T08:18:41.801Z,1092.00
2018-11-12T08:19:41.621Z,1048.00
2018-11-12T08:20:41.637Z,1108.00
2018-11-12T08:21:41.694Z,1036.00
2018-11-12T08:22:41.692Z,1088.00
2018-11-12T08:23:41.720Z,1120.00
2018-11-12T08:24:41.892Z,1232.00
2018-11-12T08:25:41.770Z,1296.00
2018-11-12T08:26:41.794Z,1360.00
2018-11-12T08:27:41.821Z,1304.00
2018-11-12T08:28:41.844Z,1304.00
2018-11-12T08:29:42.033Z,1272.00
2018-11-12T08:30:41.900Z,1228.00
2018-11-12T08:31:41.926Z,1248.00
2018-11-12T08:32:41.949Z,1224.00
2018-11-12T08:33:41.979Z,1244.00
2018-11-12T08:34:42.001Z,1228.00
2018-11-12T08:35:42.043Z,1276.00
2018-11-12T08:36:42.142Z,1200.00
2018-11-12T08:37:42.081Z,1364.00
2018-11-12T08:38:42.105Z,1504.00
2018-11-12T08:39:42.269Z,1452.00
2018-11-12T08:40:42.296Z,1528.00
2018-11-12T08:41:42.184Z,1716.00
2018-11-12T08:42:42.212Z,1588.00
2018-11-12T08:43:42.236Z,1796.00
2018-11-12T08:44:42.260Z,1660.00
2018-11-12T08:45:42.288Z,1716.00
2018-11-12T08:46:42.313Z,1832.00
2018-11-12T08:47:42.345Z,1952.00
2018-11-12T08:48:42.369Z,2004.00
2018-11-12T08:49:42.466Z,2124.00
2018-11-12T08:50:42.419Z,2092.00
2018-11-12T08:51:42.445Z,2060.00
2018-11-12T08:52:42.471Z,1892.00
2018-11-12T08:53:42.503Z,1972.00
2018-11-12T08:54:42.765Z,2088.00
2018-11-12T08:55:42.679Z,1888.00
2018-11-12T08:56:42.574Z,1936.00
2018-11-12T08:57:42.599Z,1936.00
2018-11-12T08:58:42.631Z,2032.00
2018-11-12T08:59:42.658Z,2040.00
2018-11-12T09:00:42.705Z,2180.00
2018-11-12T09:01:42.703Z,2220.00
2018-11-12T09:02:42.730Z,2044.00
2018-11-12T09:03:42.757Z,1884.00
2018-11-12T09:04:42.782Z,1760.00
2018-11-12T09:05:42.867Z,1816.00
2018-11-12T09:06:42.835Z,1692.00
2018-11-12T09:07:42.861Z,1664.00
2018-11-12T09:08:42.891Z,1696.00
2018-11-12T09:09:42.915Z,1580.00
2018-11-12T09:10:42.939Z,1492.00
2018-11-12T09:11:42.967Z,1616.00
2018-11-12T09:12:42.991Z,1904.00
2018-11-12T09:13:43.441Z,2136.00
2018-11-12T09:14:43.043Z,2108.00
2018-11-12T09:15:43.146Z,2352.00
2018-11-12T09:16:43.098Z,2428.00
2018-11-12T09:17:43.122Z,2764.00
2018-11-12T09:18:43.149Z,2564.00
2018-11-12T09:19:43.176Z,2364.00
2018-11-12T09:20:43.201Z,2476.00
2018-11-12T09:21:43.225Z,2556.00
2018-11-12T09:22:43.252Z,2748.00
2018-11-12T09:23:43.282Z,2632.00
2018-11-12T09:24:43.309Z,2744.00
2018-11-12T09:25:43.330Z,2704.00
2018-11-12T09:26:43.358Z,2332.00
2018-11-12T09:27:43.384Z,2244.00
2018-11-12T09:28:43.409Z,2108.00
2018-11-12T09:29:43.437Z,2004.00
2018-11-12T09:30:44.858Z,2008.00
2018-11-12T09:31:43.489Z,2048.00
2018-11-12T09:32:43.863Z,1992.00
2018-11-12T09:33:43.632Z,2228.00
2018-11-12T09:34:43.567Z,2332.00
2018-11-12T09:35:43.593Z,2344.00
2018-11-12T09:36:43.642Z,2464.00
2018-11-12T09:37:43.647Z,2776.00
2018-11-12T09:38:43.745Z,2632.00
2018-11-12T09:39:43.698Z,2744.00
2018-11-12T09:40:43.727Z,2524.00
2018-11-12T09:41:43.749Z,2532.00
2018-11-12T09:42:43.812Z,2884.00
2018-11-12T09:43:43.802Z,2944.00
2018-11-12T09:44:43.827Z,2636.00
2018-11-12T09:45:43.906Z,2532.00
2018-11-12T09:46:43.878Z,2688.00
2018-11-12T09:47:43.998Z,2504.00
2018-11-12T09:48:43.953Z,2556.00
2018-11-12T09:49:43.959Z,2852.00
2018-11-12T09:50:43.984Z,2764.00
2018-11-12T09:51:44.015Z,3064.00
2018-11-12T09:52:44.039Z,2952.00
2018-11-12T09:53:44.227Z,2812.00
2018-11-12T09:54:44.159Z,3132.00
2018-11-12T09:55:44.117Z,2888.00
2018-11-12T09:56:44.150Z,2940.00
2018-11-12T09:57:44.168Z,2836.00
2018-11-12T09:58:44.194Z,2872.00
2018-11-12T09:59:44.221Z,2564.00
2018-11-12T10:00:44.675Z,2612.00
2018-11-12T10:01:44.876Z,2780.00
2018-11-12T10:02:45.384Z,2588.00
2018-11-12T10:03:45.778Z,2532.00
2018-11-12T10:04:46.009Z,2772.00
2018-11-12T10:05:45.427Z,2892.00
2018-11-12T10:06:45.795Z,3080.00
2018-11-12T10:07:46.326Z,3016.00
2018-11-12T10:08:46.344Z,3172.00
2018-11-12T10:09:46.710Z,3404.00
2018-11-12T10:10:46.199Z,3244.00
2018-11-12T10:11:46.401Z,2836.00
2018-11-12T10:12:47.668Z,2908.00
2018-11-12T10:13:47.194Z,2936.00
2018-11-12T10:14:48.130Z,2932.00
2018-11-12T10:15:48.321Z,2892.00
2018-11-12T10:16:46.569Z,2772.00
2018-11-12T10:17:47.845Z,2708.00
2018-11-12T10:18:44.721Z,2756.00
2018-11-12T10:19:44.859Z,2624.00
2018-11-12T10:20:44.777Z,2688.00
2018-11-12T10:21:45.101Z,2768.00
2018-11-12T10:22:44.825Z,2768.00
2018-11-12T10:23:44.853Z,2800.00
2018-11-12T10:24:44.880Z,2644.00
2018-11-12T10:25:44.905Z,2548.00
2018-11-12T10:26:44.930Z,2676.00
2018-11-12T10:27:44.962Z,2232.00
2018-11-12T10:28:44.984Z,2220.00
2018-11-12T10:29:45.011Z,2108.00
2018-11-12T10:30:45.037Z,2288.00
2018-11-12T10:31:45.063Z,2548.00
2018-11-12T10:32:45.088Z,2312.00
2018-11-12T10:33:45.115Z,2328.00
2018-11-12T10:34:45.146Z,2568.00
2018-11-12T10:35:45.169Z,2964.00
2018-11-12T10:36:45.197Z,2496.00
2018-11-12T10:37:45.224Z,2228.00
2018-11-12T10:38:45.247Z,2464.00
2018-11-12T10:39:45.298Z,2532.00
2018-11-12T10:40:45.306Z,2776.00
2018-11-12T10:41:45.327Z,2480.00
2018-11-12T10:42:45.445Z,2740.00
2018-11-12T10:43:45.378Z,2880.00
2018-11-12T10:44:45.401Z,3528.00
2018-11-12T10:45:45.429Z,3496.00
2018-11-12T10:46:45.456Z,3900.00
2018-11-12T10:47:45.520Z,4064.00
2018-11-12T10:48:45.506Z,3944.00
2018-11-12T10:49:45.533Z,4332.00
2018-11-12T10:50:45.560Z,4724.00
2018-11-12T10:51:45.584Z,4456.00
2018-11-12T10:52:45.615Z,4684.00
2018-11-12T10:53:50.206Z,5032.00
2018-11-12T10:54:45.809Z,5344.00
2018-11-12T10:55:45.950Z,4992.00
2018-11-12T10:56:45.716Z,4996.00
2018-11-12T10:57:45.747Z,5260.00
2018-11-12T10:58:45.771Z,4928.00
2018-11-12T10:59:45.853Z,4924.00
2018-11-12T11:00:45.878Z,4732.00
2018-11-12T11:01:45.848Z,4592.00
2018-11-12T11:02:45.873Z,4264.00
2018-11-12T11:03:45.900Z,3892.00
2018-11-12T11:04:45.926Z,3668.00
2018-11-12T11:05:45.953Z,3144.00
2018-11-12T11:06:45.979Z,3088.00
2018-11-12T11:07:46.006Z,2724.00
2018-11-12T11:08:46.032Z,2660.00
2018-11-12T11:09:46.058Z,2444.00
2018-11-12T11:10:46.084Z,2280.00
2018-11-12T11:11:46.111Z,1996.00
2018-11-12T11:12:46.136Z,1800.00
2018-11-12T11:13:46.173Z,1908.00
2018-11-12T11:14:46.190Z,2012.00
2018-11-12T11:15:46.217Z,1816.00
2018-11-12T11:16:46.249Z,1896.00
2018-11-12T11:17:46.277Z,1976.00
2018-11-12T11:18:46.295Z,1696.00
2018-11-12T11:19:46.372Z,1740.00
2018-11-12T11:20:46.348Z,1704.00
2018-11-12T11:21:46.378Z,1792.00
2018-11-12T11:22:46.400Z,1812.00
2018-11-12T11:23:46.425Z,2084.00
2018-11-12T11:24:46.452Z,1928.00
2018-11-12T11:25:46.509Z,2028.00
2018-11-12T11:26:46.552Z,1860.00
2018-11-12T11:27:46.532Z,1912.00
2018-11-12T11:28:46.558Z,2012.00
2018-11-12T11:29:46.582Z,2212.00
2018-11-12T11:30:46.609Z,2160.00
2018-11-12T11:31:46.700Z,2584.00
2018-11-12T11:32:46.664Z,2300.00
2018-11-12T11:33:46.691Z,2428.00
2018-11-12T11:34:46.718Z,2480.00
2018-11-12T11:35:46.739Z,2676.00
2018-11-12T11:36:46.766Z,2728.00
2018-11-12T11:37:46.851Z,2400.00
2018-11-12T11:38:46.819Z,2516.00
2018-11-12T11:39:46.849Z,2296.00
2018-11-12T11:40:46.915Z,2144.00
2018-11-12T11:41:46.899Z,1820.00
2018-11-12T11:42:46.926Z,1804.00
2018-11-12T11:43:46.952Z,1788.00
2018-11-12T11:44:46.977Z,1676.00
2018-11-12T11:45:47.003Z,1724.00
2018-11-12T11:46:47.036Z,1744.00
2018-11-12T11:47:47.284Z,1744.00
2018-11-12T11:48:47.108Z,1692.00
2018-11-12T11:49:47.108Z,1704.00
2018-11-12T11:50:47.145Z,1744.00
2018-11-12T11:51:47.174Z,1768.00
2018-11-12T11:52:47.188Z,1716.00
2018-11-12T11:53:47.212Z,1660.00
2018-11-12T11:54:47.243Z,1596.00
2018-11-12T11:55:47.269Z,1700.00
2018-11-12T11:56:47.432Z,1572.00
2018-11-12T11:57:47.405Z,1580.00
2018-11-12T11:58:47.345Z,1800.00
2018-11-12T11:59:47.371Z,2112.00
2018-11-12T12:00:47.399Z,2404.00
2018-11-12T12:01:47.495Z,2412.00
2018-11-12T12:02:47.455Z,2524.00
2018-11-12T12:03:47.481Z,2520.00
2018-11-12T12:04:47.503Z,2660.00
2018-11-12T12:05:47.534Z,2484.00
2018-11-12T12:06:47.555Z,2772.00
2018-11-12T12:07:47.586Z,2444.00
2018-11-12T12:08:47.642Z,2232.00
2018-11-12T12:09:47.636Z,2484.00
2018-11-12T12:10:47.663Z,2388.00
2018-11-12T12:11:47.690Z,2276.00
2018-11-12T12:12:47.713Z,2528.00
2018-11-12T12:13:47.739Z,2540.00
2018-11-12T12:14:47.769Z,2756.00
2018-11-12T12:15:47.793Z,2628.00
2018-11-12T12:16:47.817Z,3332.00
2018-11-12T12:17:47.846Z,3404.00
2018-11-12T12:18:47.873Z,3592.00
2018-11-12T12:19:47.920Z,4100.00
2018-11-12T12:20:47.924Z,4468.00
2018-11-12T12:21:47.953Z,4292.00
2018-11-12T12:22:47.985Z,4152.00
2018-11-12T12:23:48.008Z,4508.00
2018-11-12T12:24:48.141Z,4560.00
2018-11-12T12:25:48.168Z,3520.00
2018-11-12T12:26:48.090Z,3360.00
2018-11-12T12:27:48.109Z,3016.00
2018-11-12T12:28:48.135Z,3048.00
2018-11-12T12:29:48.163Z,3236.00
2018-11-12T12:30:48.192Z,3348.00
2018-11-12T12:31:48.221Z,3432.00
2018-11-12T12:32:48.242Z,3264.00
2018-11-12T12:33:48.268Z,3356.00
2018-11-12T12:34:48.307Z,2760.00
2018-11-12T12:35:48.374Z,2284.00
2018-11-12T12:36:48.471Z,2264.00
2018-11-12T12:37:48.380Z,2260.00
2018-11-12T12:38:48.402Z,2212.00
2018-11-12T12:39:48.432Z,2228.00
2018-11-12T12:40:48.459Z,2172.00
2018-11-12T12:41:48.484Z,2216.00